Main page
METAR-TAF:

METAR-TAF

Airports :

Oslo Airport. Gardermoen

Oslo, Norway

latitude: 60-12N, longitude: 011-05E, elevation: 208 m

Current weather observation

The report was made 25 minutes ago, at 07:50 UTC
Wind 6 kt from the South, varying between South/Southeast and Southwest
Temperature 18°C
Humidity 52%
Pressure 1029 hPa
Visibility 10 km or more
no clouds below 1500 m and no cumulonimbus

METAR: ENGM 240750Z 18006KT 150V220 CAVOK 18/08 Q1029 NOSIG

Time: 10:15 (08:15 UTC)

Forecast

Forecast valid from 24 at 06 UTC to 25 at 06 UTC
Wind 3 kt from variable directions
Visibility 10 km or more
no clouds below 1500 m and no cumulonimbus
Becoming
from 24 at 06 UTC to 24 at 08 UTC
Wind 10 kt from the South/Southwest
Becoming
from 24 at 20 UTC to 24 at 22 UTC
Wind 3 kt from variable directions

TAF: ENGM 2406/2506 VRB03KT CAVOK BECMG 2406/2408 21010KT BECMG 2420/2422 VRB03KT

Weather observations and forecasts of more than 4000 airports (METAR and TAF reports).

The available stations are represented by yellow and red dots on the map.

Hover mouse over dot to see the name of the station.

Then click to see weather observations and forecasts.

To change the map : click on the green buttons with a black cross to zoom in, on the green button with a dash to zoom out, or on the green arrows for adjacent maps.


METAR-TAF: